CPX956 Details

Departure: Travis Air Force Base (KSUU)
Arrival: Sacramento International Airport (KSMF) at N/A
Notes: EMPTY | NON-REVENUE REPOSITIONING LEG | VFR DEPARTURE RCMD IF WX PERMITS


Current Weather Information
KSUU 251058Z AUTO 23016KT 10SM CLR 18/14 A2991 RMK AO2 SLP135 T01830140
KSMF 251053Z 16006KT 10SM CLR 22/12 A2990 RMK AO2 SLP126 T02170122